APL Fullerton — S6NQ — position and weather

sailwx.info

Track history (hours):
 
Tides and Currents Weather Stations Pressure Air Temp Water Temp Dewpoint Dewpoint Depression Visibility Wind Speed Wind Dir Waves Ship Positions

APL Fullerton

Last reported at 2018-Jun-20 03:00 UTC. Time now 2018-Jun-20 09:40 UTC.
Position N 32°36' E 137°30'.

Length 369 m; draft 13.6 m.

Type: Ship (hazmat cat A). MMSI: 563234000.

Wind from 230 at 23 knots

Barometer 1012.0 mb
Air temperature 27.0 ° C
Visibility: greater than 5.4 NM
Dewpoint 25.6 ° C
Water temperature 26.0 ° C

Date/timePositionNaut miles runAvg speedWind from/ knotsBaromVisibWave heightAir tempDewpointWater temp
2018-Jun-20 03:00N 32°36' E 137°30'47220.5 230 / 231012.0 5.4 27.025.626.0
2018-Jun-19 04:00N 28°48' E 129°30'66019.6 140 / 151012.0 5.4 28.026.628.0
2018-Jun-17 18:20N 24°13' E 118°19'513.7
2018-Jun-17 18:00N 24°16' E 118°14'611.4
2018-Jun-17 17:30N 24°20' E 118°10'510.6
2018-Jun-17 17:00N 24°24' E 118°06'612.2
2018-Jun-17 16:30N 24°27' E 118°00'2 3.7
2018-Jun-17 16:00N 24°27' E 117°58'0 0.1
2018-Jun-17 15:27N 24°27' E 117°58'0 0.0
2018-Jun-17 15:00N 24°27' E 117°58'0 0.0
2018-Jun-17 14:27N 24°27' E 117°58'0 0.0
2018-Jun-17 14:00N 24°27' E 117°58'0 0.0
2018-Jun-17 13:21N 24°27' E 117°58'0 0.0
2018-Jun-17 12:57N 24°27' E 117°58'0 0.0
2018-Jun-17 12:30N 24°27' E 117°58'0 0.0
2018-Jun-17 11:57N 24°27' E 117°58'0 0.0
2018-Jun-17 11:30N 24°27' E 117°58'0 0.0
2018-Jun-17 10:57N 24°27' E 117°58'0 0.0
2018-Jun-17 10:27N 24°27' E 117°58'0 0.0
2018-Jun-17 09:51N 24°27' E 117°58'0 0.0
2018-Jun-17 08:21N 24°27' E 117°58'0 0.0
2018-Jun-17 08:00N 24°27' E 117°58'0 0.0
2018-Jun-17 07:30N 24°27' E 117°58'0 0.0
2018-Jun-17 07:00N 24°27' E 117°58'0 0.0
2018-Jun-17 06:30N 24°27' E 117°58'0 0.0
2018-Jun-17 06:00N 24°27' E 117°58'0 0.0
2018-Jun-17 05:30N 24°27' E 117°58'0 0.0
2018-Jun-17 05:00N 24°27' E 117°58'0 0.0
2018-Jun-17 04:30N 24°27' E 117°58'0 0.0
2018-Jun-17 04:00N 24°27' E 117°58'0 0.0
2018-Jun-17 03:30N 24°27' E 117°58'0 0.0
2018-Jun-17 03:00N 24°27' E 117°58'0 0.0
2018-Jun-17 02:30N 24°27' E 117°58'0 0.0
2018-Jun-17 02:00N 24°27' E 117°58'0 0.0
2018-Jun-17 01:30N 24°27' E 117°58'0 0.0
2018-Jun-17 01:00N 24°27' E 117°58'0 0.0
2018-Jun-17 00:24N 24°27' E 117°58'0 0.0
2018-Jun-16 23:57N 24°27' E 117°58'0 0.0
2018-Jun-16 23:27N 24°27' E 117°58'0 0.0
2018-Jun-16 22:57N 24°27' E 117°58'0 0.0
2018-Jun-16 22:27N 24°27' E 117°58'0 0.0
2018-Jun-16 22:00N 24°27' E 117°58'0 0.0
2018-Jun-16 21:21N 24°27' E 117°58'0 0.0
2018-Jun-16 20:57N 24°27' E 117°58'0 0.0
2018-Jun-16 20:21N 24°27' E 117°58'0 0.0
2018-Jun-16 19:57N 24°27' E 117°58'0 0.0
2018-Jun-16 19:27N 24°27' E 117°58'0 0.0
2018-Jun-16 18:48N 24°27' E 117°58'0 0.0
2018-Jun-16 18:30N 24°27' E 117°58'0 0.0
2018-Jun-16 18:00N 24°27' E 117°58'0 0.0
2018-Jun-16 17:06N 24°27' E 117°58'0 0.0
2018-Jun-16 17:00N 24°27' E 117°58'0 0.0
2018-Jun-16 16:30N 24°27' E 117°58'0 0.0
2018-Jun-16 16:00N 24°27' E 117°58'0 0.0
2018-Jun-16 15:15N 24°27' E 117°58'0 0.0
2018-Jun-16 15:00N 24°27' E 117°58'0 0.0
2018-Jun-16 13:51N 24°27' E 117°58'0 0.0
2018-Jun-16 13:24N 24°27' E 117°58'0 0.2
2018-Jun-16 13:00N 24°27' E 117°58'1 1.5
2018-Jun-16 12:30N 24°27' E 117°59'4 8.4
2018-Jun-16 11:59N 24°26' E 118°04'611.9
2018-Jun-16 11:31N 24°22' E 118°08'612.5
2018-Jun-16 11:00N 24°17' E 118°13'713.4
2018-Jun-16 10:30N 24°12' E 118°18'257 5.1
2018-Jun-14 07:49N 22°19' E 114°07'1 0.1
2018-Jun-14 02:31N 22°19' E 114°08'0 0.0
2018-Jun-14 02:19N 22°19' E 114°08'0 0.0
2018-Jun-13 20:43N 22°19' E 114°08'0 0.0
2018-Jun-13 20:25N 22°19' E 114°08'0 0.0
2018-Jun-13 19:55N 22°19' E 114°08'0 0.0
2018-Jun-13 09:43N 22°19' E 114°08'0 0.0
2018-Jun-13 09:25N 22°19' E 114°08'0 0.0
2018-Jun-13 08:55N 22°19' E 114°08'0 0.0
2018-Jun-13 07:01N 22°19' E 114°08'0 0.0
2018-Jun-13 06:37N 22°19' E 114°08'0 0.0
2018-Jun-13 06:19N 22°19' E 114°08'0 0.0
2018-Jun-13 05:43N 22°19' E 114°08'0 0.0
2018-Jun-13 04:06N 22°19' E 114°08'0 0.6
2018-Jun-13 03:55N 22°20' E 114°07'189 4.5
2018-Jun-11 10:12N 23°09' E 117°25'520.2
2018-Jun-11 09:59N 23°13' E 117°27'1020.2
2018-Jun-11 09:30N 23°21' E 117°33'1020.1
2018-Jun-11 09:00N 23°26' E 117°43'1120.6
2018-Jun-11 08:29N 23°32' E 117°53'1020.8
2018-Jun-11 08:01N 23°38' E 118°01'1121.1
2018-Jun-11 07:31N 23°45' E 118°10'1121.1
2018-Jun-11 06:59N 23°52' E 118°18'1120.8
2018-Jun-11 06:27N 24°00' E 118°27'921.4
2018-Jun-11 06:01N 24°06' E 118°35'1121.5
2018-Jun-11 05:29N 24°13' E 118°45'  
Track history (hours):
 
Tides and Currents Weather Stations Pressure Air Temp Water Temp Dewpoint Dewpoint Depression Visibility Wind Speed Wind Dir Waves Ship Positions

APL Fullerton

Last reported at 2018-Jun-20 03:00 UTC. Time now 2018-Jun-20 09:40 UTC.
Position N 32°36' E 137°30'.

Length 369 m; draft 13.6 m.

Type: Ship (hazmat cat A). MMSI: 563234000.

Wind from 230 at 23 knots

Barometer 1012.0 mb
Air temperature 27.0 ° C
Visibility: greater than 5.4 NM
Dewpoint 25.6 ° C
Water temperature 26.0 ° C

Date/timePositionNaut miles runAvg speedWind from/ knotsBaromVisibWave heightAir tempDewpointWater temp
2018-Jun-20 03:00N 32°36' E 137°30'47220.5 230 / 231012.0 5.4 27.025.626.0
2018-Jun-19 04:00N 28°48' E 129°30'66019.6 140 / 151012.0 5.4 28.026.628.0
2018-Jun-17 18:20N 24°13' E 118°19'513.7
2018-Jun-17 18:00N 24°16' E 118°14'611.4
2018-Jun-17 17:30N 24°20' E 118°10'510.6
2018-Jun-17 17:00N 24°24' E 118°06'612.2
2018-Jun-17 16:30N 24°27' E 118°00'2 3.7
2018-Jun-17 16:00N 24°27' E 117°58'0 0.1
2018-Jun-17 15:27N 24°27' E 117°58'0 0.0
2018-Jun-17 15:00N 24°27' E 117°58'0 0.0
2018-Jun-17 14:27N 24°27' E 117°58'0 0.0
2018-Jun-17 14:00N 24°27' E 117°58'0 0.0
2018-Jun-17 13:21N 24°27' E 117°58'0 0.0
2018-Jun-17 12:57N 24°27' E 117°58'0 0.0
2018-Jun-17 12:30N 24°27' E 117°58'0 0.0
2018-Jun-17 11:57N 24°27' E 117°58'0 0.0
2018-Jun-17 11:30N 24°27' E 117°58'0 0.0
2018-Jun-17 10:57N 24°27' E 117°58'0 0.0
2018-Jun-17 10:27N 24°27' E 117°58'0 0.0
2018-Jun-17 09:51N 24°27' E 117°58'0 0.0
2018-Jun-17 08:21N 24°27' E 117°58'0 0.0
2018-Jun-17 08:00N 24°27' E 117°58'0 0.0
2018-Jun-17 07:30N 24°27' E 117°58'0 0.0
2018-Jun-17 07:00N 24°27' E 117°58'0 0.0
2018-Jun-17 06:30N 24°27' E 117°58'0 0.0
2018-Jun-17 06:00N 24°27' E 117°58'0 0.0
2018-Jun-17 05:30N 24°27' E 117°58'0 0.0
2018-Jun-17 05:00N 24°27' E 117°58'0 0.0
2018-Jun-17 04:30N 24°27' E 117°58'0 0.0
2018-Jun-17 04:00N 24°27' E 117°58'0 0.0
2018-Jun-17 03:30N 24°27' E 117°58'0 0.0
2018-Jun-17 03:00N 24°27' E 117°58'0 0.0
2018-Jun-17 02:30N 24°27' E 117°58'0 0.0
2018-Jun-17 02:00N 24°27' E 117°58'0 0.0
2018-Jun-17 01:30N 24°27' E 117°58'0 0.0
2018-Jun-17 01:00N 24°27' E 117°58'0 0.0
2018-Jun-17 00:24N 24°27' E 117°58'0 0.0
2018-Jun-16 23:57N 24°27' E 117°58'0 0.0
2018-Jun-16 23:27N 24°27' E 117°58'0 0.0
2018-Jun-16 22:57N 24°27' E 117°58'0 0.0
2018-Jun-16 22:27N 24°27' E 117°58'0 0.0
2018-Jun-16 22:00N 24°27' E 117°58'0 0.0
2018-Jun-16 21:21N 24°27' E 117°58'0 0.0
2018-Jun-16 20:57N 24°27' E 117°58'0 0.0
2018-Jun-16 20:21N 24°27' E 117°58'0 0.0
2018-Jun-16 19:57N 24°27' E 117°58'0 0.0
2018-Jun-16 19:27N 24°27' E 117°58'0 0.0
2018-Jun-16 18:48N 24°27' E 117°58'0 0.0
2018-Jun-16 18:30N 24°27' E 117°58'0 0.0
2018-Jun-16 18:00N 24°27' E 117°58'0 0.0
2018-Jun-16 17:06N 24°27' E 117°58'0 0.0
2018-Jun-16 17:00N 24°27' E 117°58'0 0.0
2018-Jun-16 16:30N 24°27' E 117°58'0 0.0
2018-Jun-16 16:00N 24°27' E 117°58'0 0.0
2018-Jun-16 15:15N 24°27' E 117°58'0 0.0
2018-Jun-16 15:00N 24°27' E 117°58'0 0.0
2018-Jun-16 13:51N 24°27' E 117°58'0 0.0
2018-Jun-16 13:24N 24°27' E 117°58'0 0.2
2018-Jun-16 13:00N 24°27' E 117°58'1 1.5
2018-Jun-16 12:30N 24°27' E 117°59'4 8.4
2018-Jun-16 11:59N 24°26' E 118°04'611.9
2018-Jun-16 11:31N 24°22' E 118°08'612.5
2018-Jun-16 11:00N 24°17' E 118°13'713.4
2018-Jun-16 10:30N 24°12' E 118°18'257 5.1
2018-Jun-14 07:49N 22°19' E 114°07'1 0.1
2018-Jun-14 02:31N 22°19' E 114°08'0 0.0
2018-Jun-14 02:19N 22°19' E 114°08'0 0.0
2018-Jun-13 20:43N 22°19' E 114°08'0 0.0
2018-Jun-13 20:25N 22°19' E 114°08'0 0.0
2018-Jun-13 19:55N 22°19' E 114°08'0 0.0
2018-Jun-13 09:43N 22°19' E 114°08'0 0.0
2018-Jun-13 09:25N 22°19' E 114°08'0 0.0
2018-Jun-13 08:55N 22°19' E 114°08'0 0.0
2018-Jun-13 07:01N 22°19' E 114°08'0 0.0
2018-Jun-13 06:37N 22°19' E 114°08'0 0.0
2018-Jun-13 06:19N 22°19' E 114°08'0 0.0
2018-Jun-13 05:43N 22°19' E 114°08'0 0.0
2018-Jun-13 04:06N 22°19' E 114°08'0 0.6
2018-Jun-13 03:55N 22°20' E 114°07'189 4.5
2018-Jun-11 10:12N 23°09' E 117°25'520.2
2018-Jun-11 09:59N 23°13' E 117°27'1020.2
2018-Jun-11 09:30N 23°21' E 117°33'1020.1
2018-Jun-11 09:00N 23°26' E 117°43'1120.6
2018-Jun-11 08:29N 23°32' E 117°53'1020.8
2018-Jun-11 08:01N 23°38' E 118°01'1121.1
2018-Jun-11 07:31N 23°45' E 118°10'1121.1
2018-Jun-11 06:59N 23°52' E 118°18'1120.8
2018-Jun-11 06:27N 24°00' E 118°27'921.4
2018-Jun-11 06:01N 24°06' E 118°35'1121.5
2018-Jun-11 05:29N 24°13' E 118°45'  

Dump ship's entire track history